sensor_id;sensor_type;location;lat;lon;timestamp;temperature;humidity
5556;DHT22;2801;50.972;7.856;2023-05-21T00:01:55;12.20;99.90
5556;DHT22;2801;50.972;7.856;2023-05-21T00:04:22;12.30;99.90
5556;DHT22;2801;50.972;7.856;2023-05-21T00:06:51;12.20;99.90
5556;DHT22;2801;50.972;7.856;2023-05-21T00:09:17;12.20;99.90
5556;DHT22;2801;50.972;7.856;2023-05-21T00:11:44;12.10;99.90
5556;DHT22;2801;50.972;7.856;2023-05-21T00:14:11;12.10;99.90
5556;DHT22;2801;50.972;7.856;2023-05-21T00:16:38;12.10;99.90
5556;DHT22;2801;50.972;7.856;2023-05-21T00:19:05;12.10;99.90
5556;DHT22;2801;50.972;7.856;2023-05-21T00:21:33;12.10;99.90
5556;DHT22;2801;50.972;7.856;2023-05-21T00:24:00;12.00;99.90
5556;DHT22;2801;50.972;7.856;2023-05-21T00:26:27;12.00;99.90
5556;DHT22;2801;50.972;7.856;2023-05-21T00:28:54;12.00;99.90
5556;DHT22;2801;50.972;7.856;2023-05-21T00:31:21;12.10;99.90
5556;DHT22;2801;50.972;7.856;2023-05-21T00:33:48;12.00;99.90
5556;DHT22;2801;50.972;7.856;2023-05-21T00:36:15;11.90;99.90
5556;DHT22;2801;50.972;7.856;2023-05-21T00:38:43;11.90;99.90
5556;DHT22;2801;50.972;7.856;2023-05-21T00:41:11;11.90;99.90
5556;DHT22;2801;50.972;7.856;2023-05-21T00:43:38;11.90;99.90
5556;DHT22;2801;50.972;7.856;2023-05-21T00:46:14;12.00;99.90
5556;DHT22;2801;50.972;7.856;2023-05-21T00:48:44;11.70;99.90
5556;DHT22;2801;50.972;7.856;2023-05-21T00:51:13;11.60;99.90
5556;DHT22;2801;50.972;7.856;2023-05-21T00:53:42;11.60;99.90
5556;DHT22;2801;50.972;7.856;2023-05-21T00:56:10;11.50;99.90
5556;DHT22;2801;50.972;7.856;2023-05-21T00:58:38;11.50;99.90
5556;DHT22;2801;50.972;7.856;2023-05-21T01:01:06;11.40;99.90
5556;DHT22;2801;50.972;7.856;2023-05-21T01:03:39;11.40;99.90
5556;DHT22;2801;50.972;7.856;2023-05-21T01:06:08;11.40;99.90
5556;DHT22;2801;50.972;7.856;2023-05-21T01:08:36;11.40;99.90
5556;DHT22;2801;50.972;7.856;2023-05-21T01:11:05;11.30;99.90
5556;DHT22;2801;50.972;7.856;2023-05-21T01:13:36;11.30;99.90
5556;DHT22;2801;50.972;7.856;2023-05-21T01:16:06;11.20;99.90
5556;DHT22;2801;50.972;7.856;2023-05-21T01:18:35;11.10;99.90
5556;DHT22;2801;50.972;7.856;2023-05-21T01:21:04;11.40;99.90
5556;DHT22;2801;50.972;7.856;2023-05-21T01:23:33;11.20;99.90
5556;DHT22;2801;50.972;7.856;2023-05-21T01:26:00;11.20;99.90
5556;DHT22;2801;50.972;7.856;2023-05-21T01:28:27;11.10;99.90
5556;DHT22;2801;50.972;7.856;2023-05-21T01:30:57;11.10;99.90
5556;DHT22;2801;50.972;7.856;2023-05-21T01:33:40;11.10;99.90
5556;DHT22;2801;50.972;7.856;2023-05-21T01:36:24;11.00;99.90
5556;DHT22;2801;50.972;7.856;2023-05-21T01:39:06;10.90;99.90
5556;DHT22;2801;50.972;7.856;2023-05-21T01:41:43;10.90;99.90
5556;DHT22;2801;50.972;7.856;2023-05-21T01:44:12;10.80;99.90
5556;DHT22;2801;50.972;7.856;2023-05-21T01:46:42;10.80;99.90
5556;DHT22;2801;50.972;7.856;2023-05-21T01:49:10;10.80;99.90
5556;DHT22;2801;50.972;7.856;2023-05-21T01:51:37;10.90;99.90
5556;DHT22;2801;50.972;7.856;2023-05-21T01:54:05;10.90;99.90
5556;DHT22;2801;50.972;7.856;2023-05-21T01:56:32;11.00;99.90
5556;DHT22;2801;50.972;7.856;2023-05-21T01:58:59;11.00;99.90
5556;DHT22;2801;50.972;7.856;2023-05-21T02:01:26;10.90;99.90
5556;DHT22;2801;50.972;7.856;2023-05-21T02:03:56;10.90;99.90
5556;DHT22;2801;50.972;7.856;2023-05-21T02:06:26;10.80;99.90
5556;DHT22;2801;50.972;7.856;2023-05-21T02:08:53;10.80;99.90
5556;DHT22;2801;50.972;7.856;2023-05-21T02:11:21;10.80;99.90
5556;DHT22;2801;50.972;7.856;2023-05-21T02:13:48;10.80;99.90
5556;DHT22;2801;50.972;7.856;2023-05-21T02:16:15;10.80;99.90
5556;DHT22;2801;50.972;7.856;2023-05-21T02:18:42;10.80;99.90
5556;DHT22;2801;50.972;7.856;2023-05-21T02:21:09;10.80;99.90
5556;DHT22;2801;50.972;7.856;2023-05-21T02:23:37;10.80;99.90
5556;DHT22;2801;50.972;7.856;2023-05-21T02:26:04;10.90;99.90
5556;DHT22;2801;50.972;7.856;2023-05-21T02:28:31;10.90;99.90
5556;DHT22;2801;50.972;7.856;2023-05-21T02:30:58;11.00;99.90
5556;DHT22;2801;50.972;7.856;2023-05-21T02:33:25;11.00;99.90
5556;DHT22;2801;50.972;7.856;2023-05-21T02:35:52;11.10;99.90
5556;DHT22;2801;50.972;7.856;2023-05-21T02:38:19;11.00;99.90
5556;DHT22;2801;50.972;7.856;2023-05-21T02:40:49;11.00;99.90
5556;DHT22;2801;50.972;7.856;2023-05-21T02:43:16;11.00;99.90
5556;DHT22;2801;50.972;7.856;2023-05-21T02:45:43;10.90;99.90
5556;DHT22;2801;50.972;7.856;2023-05-21T02:48:10;10.90;99.90
5556;DHT22;2801;50.972;7.856;2023-05-21T02:50:37;10.90;99.90
5556;DHT22;2801;50.972;7.856;2023-05-21T02:53:04;10.90;99.90
5556;DHT22;2801;50.972;7.856;2023-05-21T02:55:31;10.90;99.90
5556;DHT22;2801;50.972;7.856;2023-05-21T02:57:59;10.90;99.90
5556;DHT22;2801;50.972;7.856;2023-05-21T03:00:26;10.90;99.90
5556;DHT22;2801;50.972;7.856;2023-05-21T03:02:57;10.90;99.90
5556;DHT22;2801;50.972;7.856;2023-05-21T03:05:24;10.80;99.90
5556;DHT22;2801;50.972;7.856;2023-05-21T03:07:51;10.80;99.90
5556;DHT22;2801;50.972;7.856;2023-05-21T03:10:18;10.80;99.90
5556;DHT22;2801;50.972;7.856;2023-05-21T03:12:46;10.80;99.90
5556;DHT22;2801;50.972;7.856;2023-05-21T03:15:13;10.80;99.90
5556;DHT22;2801;50.972;7.856;2023-05-21T03:17:40;10.80;99.90
5556;DHT22;2801;50.972;7.856;2023-05-21T03:20:10;10.80;99.90
5556;DHT22;2801;50.972;7.856;2023-05-21T03:22:44;10.70;99.90
5556;DHT22;2801;50.972;7.856;2023-05-21T03:25:12;10.80;99.90
5556;DHT22;2801;50.972;7.856;2023-05-21T03:27:39;10.80;99.90
5556;DHT22;2801;50.972;7.856;2023-05-21T03:30:06;10.80;99.90
5556;DHT22;2801;50.972;7.856;2023-05-21T03:32:35;10.80;99.90
5556;DHT22;2801;50.972;7.856;2023-05-21T03:35:04;10.80;99.90
5556;DHT22;2801;50.972;7.856;2023-05-21T03:37:31;10.70;99.90
5556;DHT22;2801;50.972;7.856;2023-05-21T03:39:58;10.70;99.90
5556;DHT22;2801;50.972;7.856;2023-05-21T03:42:25;10.80;99.90
5556;DHT22;2801;50.972;7.856;2023-05-21T03:44:52;10.80;99.90
5556;DHT22;2801;50.972;7.856;2023-05-21T03:47:19;10.80;99.90
5556;DHT22;2801;50.972;7.856;2023-05-21T03:49:46;10.90;99.90
5556;DHT22;2801;50.972;7.856;2023-05-21T03:52:13;10.90;99.90
5556;DHT22;2801;50.972;7.856;2023-05-21T03:54:40;10.80;99.90
5556;DHT22;2801;50.972;7.856;2023-05-21T03:57:07;11.00;99.90
5556;DHT22;2801;50.972;7.856;2023-05-21T03:59:34;10.90;99.90
5556;DHT22;2801;50.972;7.856;2023-05-21T04:02:01;10.90;99.90
5556;DHT22;2801;50.972;7.856;2023-05-21T04:04:28;11.00;99.90
5556;DHT22;2801;50.972;7.856;2023-05-21T04:06:55;11.10;99.90
5556;DHT22;2801;50.972;7.856;2023-05-21T04:09:22;11.30;99.90
5556;DHT22;2801;50.972;7.856;2023-05-21T04:11:49;11.10;99.90
5556;DHT22;2801;50.972;7.856;2023-05-21T04:14:16;11.20;99.90
5556;DHT22;2801;50.972;7.856;2023-05-21T04:16:43;11.20;99.90
5556;DHT22;2801;50.972;7.856;2023-05-21T04:19:10;11.20;99.90
5556;DHT22;2801;50.972;7.856;2023-05-21T04:21:37;11.30;99.90
5556;DHT22;2801;50.972;7.856;2023-05-21T04:24:04;11.40;99.90
5556;DHT22;2801;50.972;7.856;2023-05-21T04:26:31;11.30;99.90
5556;DHT22;2801;50.972;7.856;2023-05-21T04:29:00;11.40;99.90
5556;DHT22;2801;50.972;7.856;2023-05-21T04:31:30;11.40;99.90
5556;DHT22;2801;50.972;7.856;2023-05-21T04:34:00;11.40;99.90
5556;DHT22;2801;50.972;7.856;2023-05-21T04:36:27;11.40;99.90
5556;DHT22;2801;50.972;7.856;2023-05-21T04:38:54;11.50;99.90
5556;DHT22;2801;50.972;7.856;2023-05-21T04:41:21;11.50;99.90
5556;DHT22;2801;50.972;7.856;2023-05-21T04:43:48;11.60;99.90
5556;DHT22;2801;50.972;7.856;2023-05-21T04:46:21;11.60;99.90
5556;DHT22;2801;50.972;7.856;2023-05-21T04:48:54;11.60;99.90
5556;DHT22;2801;50.972;7.856;2023-05-21T04:51:21;11.70;99.90
5556;DHT22;2801;50.972;7.856;2023-05-21T04:53:50;11.70;99.90
5556;DHT22;2801;50.972;7.856;2023-05-21T04:56:17;11.80;99.90
5556;DHT22;2801;50.972;7.856;2023-05-21T04:58:45;11.80;99.90
5556;DHT22;2801;50.972;7.856;2023-05-21T05:01:16;11.90;99.90
5556;DHT22;2801;50.972;7.856;2023-05-21T05:03:45;11.90;99.90
5556;DHT22;2801;50.972;7.856;2023-05-21T05:06:12;12.00;99.90
5556;DHT22;2801;50.972;7.856;2023-05-21T05:08:38;12.10;99.90
5556;DHT22;2801;50.972;7.856;2023-05-21T05:11:06;12.10;99.90
5556;DHT22;2801;50.972;7.856;2023-05-21T05:13:33;12.20;99.90
5556;DHT22;2801;50.972;7.856;2023-05-21T05:16:00;12.20;99.90
5556;DHT22;2801;50.972;7.856;2023-05-21T05:18:28;12.30;99.90
5556;DHT22;2801;50.972;7.856;2023-05-21T05:20:55;12.40;99.90
5556;DHT22;2801;50.972;7.856;2023-05-21T05:23:22;12.40;99.90
5556;DHT22;2801;50.972;7.856;2023-05-21T05:25:49;12.50;99.90
5556;DHT22;2801;50.972;7.856;2023-05-21T05:28:16;12.60;99.90
5556;DHT22;2801;50.972;7.856;2023-05-21T05:30:43;12.70;99.90
5556;DHT22;2801;50.972;7.856;2023-05-21T05:33:10;12.70;99.90
5556;DHT22;2801;50.972;7.856;2023-05-21T05:35:37;12.80;99.90
5556;DHT22;2801;50.972;7.856;2023-05-21T05:38:04;12.90;99.90
5556;DHT22;2801;50.972;7.856;2023-05-21T05:40:31;13.00;99.90
5556;DHT22;2801;50.972;7.856;2023-05-21T05:42:58;13.10;99.90
5556;DHT22;2801;50.972;7.856;2023-05-21T05:45:25;13.20;99.90
5556;DHT22;2801;50.972;7.856;2023-05-21T05:47:52;13.30;99.90
5556;DHT22;2801;50.972;7.856;2023-05-21T05:50:19;13.40;99.90
5556;DHT22;2801;50.972;7.856;2023-05-21T05:52:46;13.50;99.90
5556;DHT22;2801;50.972;7.856;2023-05-21T05:55:14;13.60;99.90
5556;DHT22;2801;50.972;7.856;2023-05-21T05:57:41;13.70;99.90
5556;DHT22;2801;50.972;7.856;2023-05-21T06:00:11;13.70;99.90
5556;DHT22;2801;50.972;7.856;2023-05-21T06:02:38;13.80;99.90
5556;DHT22;2801;50.972;7.856;2023-05-21T06:05:06;13.90;99.90
5556;DHT22;2801;50.972;7.856;2023-05-21T06:07:38;13.90;99.90
5556;DHT22;2801;50.972;7.856;2023-05-21T06:10:07;14.00;99.90
5556;DHT22;2801;50.972;7.856;2023-05-21T06:12:34;14.00;99.90
5556;DHT22;2801;50.972;7.856;2023-05-21T06:15:01;14.10;99.90
5556;DHT22;2801;50.972;7.856;2023-05-21T06:17:29;14.10;99.90
5556;DHT22;2801;50.972;7.856;2023-05-21T06:19:57;14.20;99.90
5556;DHT22;2801;50.972;7.856;2023-05-21T06:22:24;14.30;99.90
5556;DHT22;2801;50.972;7.856;2023-05-21T06:24:51;14.30;99.90
5556;DHT22;2801;50.972;7.856;2023-05-21T06:27:18;14.50;99.90
5556;DHT22;2801;50.972;7.856;2023-05-21T06:29:48;14.60;99.90
5556;DHT22;2801;50.972;7.856;2023-05-21T06:32:15;14.70;99.90
5556;DHT22;2801;50.972;7.856;2023-05-21T06:34:42;14.80;99.90
5556;DHT22;2801;50.972;7.856;2023-05-21T06:37:09;14.90;99.90
5556;DHT22;2801;50.972;7.856;2023-05-21T06:39:36;15.00;99.90
5556;DHT22;2801;50.972;7.856;2023-05-21T06:42:03;15.10;99.90
5556;DHT22;2801;50.972;7.856;2023-05-21T06:44:30;15.20;99.90
5556;DHT22;2801;50.972;7.856;2023-05-21T06:46:57;15.40;99.90
5556;DHT22;2801;50.972;7.856;2023-05-21T06:49:24;15.50;99.90
5556;DHT22;2801;50.972;7.856;2023-05-21T06:51:52;15.70;99.90
5556;DHT22;2801;50.972;7.856;2023-05-21T06:54:19;15.90;99.90
5556;DHT22;2801;50.972;7.856;2023-05-21T06:56:46;16.10;99.90
5556;DHT22;2801;50.972;7.856;2023-05-21T06:59:13;16.30;99.90
5556;DHT22;2801;50.972;7.856;2023-05-21T07:01:40;16.50;99.90
5556;DHT22;2801;50.972;7.856;2023-05-21T07:04:10;16.80;99.90
5556;DHT22;2801;50.972;7.856;2023-05-21T07:06:37;17.00;99.90
5556;DHT22;2801;50.972;7.856;2023-05-21T07:09:04;17.20;99.90
5556;DHT22;2801;50.972;7.856;2023-05-21T07:11:32;17.30;99.90
5556;DHT22;2801;50.972;7.856;2023-05-21T07:13:59;17.40;99.90
5556;DHT22;2801;50.972;7.856;2023-05-21T07:16:27;17.50;99.90
5556;DHT22;2801;50.972;7.856;2023-05-21T07:18:54;17.60;99.90
5556;DHT22;2801;50.972;7.856;2023-05-21T07:21:21;17.60;99.90
5556;DHT22;2801;50.972;7.856;2023-05-21T07:23:48;17.60;99.90
5556;DHT22;2801;50.972;7.856;2023-05-21T07:26:15;17.70;99.90
5556;DHT22;2801;50.972;7.856;2023-05-21T07:28:42;17.80;99.90
5556;DHT22;2801;50.972;7.856;2023-05-21T07:31:09;18.20;99.90
5556;DHT22;2801;50.972;7.856;2023-05-21T07:33:38;18.80;99.90
5556;DHT22;2801;50.972;7.856;2023-05-21T07:36:05;19.50;99.90
5556;DHT22;2801;50.972;7.856;2023-05-21T07:38:32;20.00;99.90
5556;DHT22;2801;50.972;7.856;2023-05-21T07:41:00;20.60;99.90
5556;DHT22;2801;50.972;7.856;2023-05-21T07:43:27;21.10;99.90
5556;DHT22;2801;50.972;7.856;2023-05-21T07:45:54;21.30;99.90
5556;DHT22;2801;50.972;7.856;2023-05-21T07:48:21;21.60;99.90
5556;DHT22;2801;50.972;7.856;2023-05-21T07:50:48;21.90;99.90
5556;DHT22;2801;50.972;7.856;2023-05-21T07:53:18;22.00;99.90
5556;DHT22;2801;50.972;7.856;2023-05-21T07:55:46;21.90;99.90
5556;DHT22;2801;50.972;7.856;2023-05-21T07:58:17;21.70;99.90
5556;DHT22;2801;50.972;7.856;2023-05-21T08:00:46;21.50;99.90
5556;DHT22;2801;50.972;7.856;2023-05-21T08:03:14;21.30;99.90
5556;DHT22;2801;50.972;7.856;2023-05-21T08:05:46;21.20;99.90
5556;DHT22;2801;50.972;7.856;2023-05-21T08:08:18;20.90;99.90
5556;DHT22;2801;50.972;7.856;2023-05-21T08:10:45;20.60;99.90
5556;DHT22;2801;50.972;7.856;2023-05-21T08:13:14;20.40;99.90
5556;DHT22;2801;50.972;7.856;2023-05-21T08:15:42;20.20;99.90
5556;DHT22;2801;50.972;7.856;2023-05-21T08:18:09;20.10;99.90
5556;DHT22;2801;50.972;7.856;2023-05-21T08:20:38;20.10;99.90
5556;DHT22;2801;50.972;7.856;2023-05-21T08:23:05;19.90;99.90
5556;DHT22;2801;50.972;7.856;2023-05-21T08:25:32;19.90;99.90
5556;DHT22;2801;50.972;7.856;2023-05-21T08:27:59;19.80;99.90
5556;DHT22;2801;50.972;7.856;2023-05-21T08:30:26;19.80;99.90
5556;DHT22;2801;50.972;7.856;2023-05-21T08:32:53;19.70;99.90
5556;DHT22;2801;50.972;7.856;2023-05-21T08:35:21;19.70;99.90
5556;DHT22;2801;50.972;7.856;2023-05-21T08:37:48;19.90;99.90
5556;DHT22;2801;50.972;7.856;2023-05-21T08:40:15;20.10;99.90
5556;DHT22;2801;50.972;7.856;2023-05-21T08:45:19;20.20;99.90
5556;DHT22;2801;50.972;7.856;2023-05-21T08:47:48;20.20;99.90
5556;DHT22;2801;50.972;7.856;2023-05-21T08:50:21;20.10;99.90
5556;DHT22;2801;50.972;7.856;2023-05-21T08:52:51;19.90;99.90
5556;DHT22;2801;50.972;7.856;2023-05-21T08:55:21;19.70;99.90
5556;DHT22;2801;50.972;7.856;2023-05-21T08:57:49;19.60;99.90
5556;DHT22;2801;50.972;7.856;2023-05-21T09:00:19;19.50;99.90
5556;DHT22;2801;50.972;7.856;2023-05-21T09:02:46;19.50;99.90
5556;DHT22;2801;50.972;7.856;2023-05-21T09:05:14;19.50;99.90
5556;DHT22;2801;50.972;7.856;2023-05-21T09:07:46;19.40;99.90
5556;DHT22;2801;50.972;7.856;2023-05-21T09:10:35;19.40;99.90
5556;DHT22;2801;50.972;7.856;2023-05-21T09:13:05;19.40;99.90
5556;DHT22;2801;50.972;7.856;2023-05-21T09:15:33;19.50;99.90
5556;DHT22;2801;50.972;7.856;2023-05-21T09:18:00;19.50;99.90
5556;DHT22;2801;50.972;7.856;2023-05-21T09:20:28;19.60;99.90
5556;DHT22;2801;50.972;7.856;2023-05-21T09:22:55;19.60;99.90
5556;DHT22;2801;50.972;7.856;2023-05-21T09:25:25;19.70;99.90
5556;DHT22;2801;50.972;7.856;2023-05-21T09:27:55;19.80;99.90
5556;DHT22;2801;50.972;7.856;2023-05-21T09:30:23;19.80;99.90
5556;DHT22;2801;50.972;7.856;2023-05-21T09:32:57;19.70;99.90
5556;DHT22;2801;50.972;7.856;2023-05-21T09:35:26;19.80;99.90
5556;DHT22;2801;50.972;7.856;2023-05-21T09:37:53;20.00;99.90
5556;DHT22;2801;50.972;7.856;2023-05-21T09:40:23;20.10;99.90
5556;DHT22;2801;50.972;7.856;2023-05-21T09:42:52;20.40;99.90
5556;DHT22;2801;50.972;7.856;2023-05-21T09:45:25;20.60;99.90
5556;DHT22;2801;50.972;7.856;2023-05-21T09:47:54;20.80;99.90
5556;DHT22;2801;50.972;7.856;2023-05-21T09:50:24;20.90;99.90
5556;DHT22;2801;50.972;7.856;2023-05-21T09:52:54;21.10;99.90
5556;DHT22;2801;50.972;7.856;2023-05-21T09:55:22;21.10;99.90
5556;DHT22;2801;50.972;7.856;2023-05-21T09:57:52;21.10;99.90
5556;DHT22;2801;50.972;7.856;2023-05-21T10:00:23;21.10;99.90
5556;DHT22;2801;50.972;7.856;2023-05-21T10:02:54;21.10;99.90
5556;DHT22;2801;50.972;7.856;2023-05-21T10:05:27;21.10;99.90
5556;DHT22;2801;50.972;7.856;2023-05-21T10:08:00;21.20;99.90
5556;DHT22;2801;50.972;7.856;2023-05-21T10:10:29;21.30;99.90
5556;DHT22;2801;50.972;7.856;2023-05-21T10:13:03;21.50;99.90
5556;DHT22;2801;50.972;7.856;2023-05-21T10:15:37;21.70;99.90
5556;DHT22;2801;50.972;7.856;2023-05-21T10:18:09;21.80;99.90
5556;DHT22;2801;50.972;7.856;2023-05-21T10:20:39;21.80;99.90
5556;DHT22;2801;50.972;7.856;2023-05-21T10:23:07;21.80;99.90
5556;DHT22;2801;50.972;7.856;2023-05-21T10:25:35;21.80;99.90
5556;DHT22;2801;50.972;7.856;2023-05-21T10:28:03;21.90;99.90
5556;DHT22;2801;50.972;7.856;2023-05-21T10:30:33;21.90;99.80
5556;DHT22;2801;50.972;7.856;2023-05-21T10:33:03;22.00;99.60
5556;DHT22;2801;50.972;7.856;2023-05-21T10:35:32;22.00;99.70
5556;DHT22;2801;50.972;7.856;2023-05-21T10:38:03;22.10;99.60
5556;DHT22;2801;50.972;7.856;2023-05-21T10:40:33;22.20;99.80
5556;DHT22;2801;50.972;7.856;2023-05-21T10:47:16;22.70;99.50
5556;DHT22;2801;50.972;7.856;2023-05-21T10:53:02;23.10;99.00
5556;DHT22;2801;50.972;7.856;2023-05-21T10:55:54;23.40;98.80
5556;DHT22;2801;50.972;7.856;2023-05-21T11:01:06;23.70;97.70
5556;DHT22;2801;50.972;7.856;2023-05-21T11:03:34;23.90;97.20
5556;DHT22;2801;50.972;7.856;2023-05-21T11:06:03;23.90;96.60
5556;DHT22;2801;50.972;7.856;2023-05-21T11:08:32;23.80;96.80
5556;DHT22;2801;50.972;7.856;2023-05-21T11:11:02;23.80;96.80
5556;DHT22;2801;50.972;7.856;2023-05-21T11:13:45;23.90;97.10
5556;DHT22;2801;50.972;7.856;2023-05-21T11:16:17;23.90;96.50
5556;DHT22;2801;50.972;7.856;2023-05-21T11:21:16;24.20;96.70
5556;DHT22;2801;50.972;7.856;2023-05-21T11:26:16;24.30;96.10
5556;DHT22;2801;50.972;7.856;2023-05-21T11:28:44;24.40;95.80
5556;DHT22;2801;50.972;7.856;2023-05-21T11:31:24;24.40;95.50
5556;DHT22;2801;50.972;7.856;2023-05-21T11:34:21;24.60;95.50
5556;DHT22;2801;50.972;7.856;2023-05-21T11:39:44;24.60;95.40
5556;DHT22;2801;50.972;7.856;2023-05-21T11:42:21;24.60;95.60
5556;DHT22;2801;50.972;7.856;2023-05-21T11:44:57;24.70;96.10
5556;DHT22;2801;50.972;7.856;2023-05-21T11:47:27;24.80;95.80
5556;DHT22;2801;50.972;7.856;2023-05-21T11:49:57;24.80;95.10
5556;DHT22;2801;50.972;7.856;2023-05-21T11:52:30;24.80;95.20
5556;DHT22;2801;50.972;7.856;2023-05-21T11:54:58;24.80;95.10
5556;DHT22;2801;50.972;7.856;2023-05-21T11:57:27;24.80;95.20
5556;DHT22;2801;50.972;7.856;2023-05-21T11:59:59;25.00;95.10
5556;DHT22;2801;50.972;7.856;2023-05-21T12:02:31;25.20;95.10
5556;DHT22;2801;50.972;7.856;2023-05-21T12:04:58;25.40;94.70
5556;DHT22;2801;50.972;7.856;2023-05-21T12:07:27;25.50;95.20
5556;DHT22;2801;50.972;7.856;2023-05-21T12:09:58;25.70;95.10
5556;DHT22;2801;50.972;7.856;2023-05-21T12:12:26;25.80;94.90
5556;DHT22;2801;50.972;7.856;2023-05-21T12:15:04;25.80;94.50
5556;DHT22;2801;50.972;7.856;2023-05-21T12:17:33;26.00;93.70
5556;DHT22;2801;50.972;7.856;2023-05-21T12:20:00;26.10;94.60
5556;DHT22;2801;50.972;7.856;2023-05-21T12:22:27;25.80;93.00
5556;DHT22;2801;50.972;7.856;2023-05-21T12:24:55;25.60;92.70
5556;DHT22;2801;50.972;7.856;2023-05-21T12:27:23;25.20;91.40
5556;DHT22;2801;50.972;7.856;2023-05-21T12:29:52;24.80;92.80
5556;DHT22;2801;50.972;7.856;2023-05-21T12:32:20;24.60;93.60
5556;DHT22;2801;50.972;7.856;2023-05-21T12:34:51;24.60;93.30
5556;DHT22;2801;50.972;7.856;2023-05-21T12:37:23;24.80;94.40
5556;DHT22;2801;50.972;7.856;2023-05-21T12:39:53;25.10;94.40
5556;DHT22;2801;50.972;7.856;2023-05-21T12:42:24;25.50;93.80
5556;DHT22;2801;50.972;7.856;2023-05-21T12:45:08;25.70;92.80
5556;DHT22;2801;50.972;7.856;2023-05-21T12:47:35;25.70;92.60
5556;DHT22;2801;50.972;7.856;2023-05-21T12:50:06;25.70;92.30
5556;DHT22;2801;50.972;7.856;2023-05-21T12:52:35;25.40;91.10
5556;DHT22;2801;50.972;7.856;2023-05-21T12:55:02;25.20;91.80
5556;DHT22;2801;50.972;7.856;2023-05-21T12:57:36;24.80;92.40
5556;DHT22;2801;50.972;7.856;2023-05-21T13:00:06;25.10;92.90
5556;DHT22;2801;50.972;7.856;2023-05-21T13:02:38;25.30;92.80
5556;DHT22;2801;50.972;7.856;2023-05-21T13:05:09;25.60;92.70
5556;DHT22;2801;50.972;7.856;2023-05-21T13:07:42;25.70;92.60
5556;DHT22;2801;50.972;7.856;2023-05-21T13:10:13;25.90;92.70
5556;DHT22;2801;50.972;7.856;2023-05-21T13:12:42;26.10;92.00
5556;DHT22;2801;50.972;7.856;2023-05-21T13:15:10;26.30;91.70
5556;DHT22;2801;50.972;7.856;2023-05-21T13:17:37;26.40;91.50
5556;DHT22;2801;50.972;7.856;2023-05-21T13:22:50;26.50;91.70
5556;DHT22;2801;50.972;7.856;2023-05-21T13:25:22;26.50;90.80
5556;DHT22;2801;50.972;7.856;2023-05-21T13:27:51;26.50;91.00
5556;DHT22;2801;50.972;7.856;2023-05-21T13:30:19;26.40;83.90
5556;DHT22;2801;50.972;7.856;2023-05-21T13:32:48;26.20;87.60
5556;DHT22;2801;50.972;7.856;2023-05-21T13:35:15;26.20;85.60
5556;DHT22;2801;50.972;7.856;2023-05-21T13:37:43;25.90;81.30
5556;DHT22;2801;50.972;7.856;2023-05-21T13:40:12;25.70;76.50
5556;DHT22;2801;50.972;7.856;2023-05-21T13:42:45;25.50;80.60
5556;DHT22;2801;50.972;7.856;2023-05-21T13:45:15;25.50;78.60
5556;DHT22;2801;50.972;7.856;2023-05-21T13:47:44;25.50;75.80
5556;DHT22;2801;50.972;7.856;2023-05-21T13:50:14;25.50;77.00
5556;DHT22;2801;50.972;7.856;2023-05-21T13:52:41;25.60;76.10
5556;DHT22;2801;50.972;7.856;2023-05-21T13:55:08;25.70;74.80
5556;DHT22;2801;50.972;7.856;2023-05-21T13:57:36;25.50;74.90
5556;DHT22;2801;50.972;7.856;2023-05-21T14:00:03;25.40;72.60
5556;DHT22;2801;50.972;7.856;2023-05-21T14:02:31;25.30;73.20
5556;DHT22;2801;50.972;7.856;2023-05-21T14:04:59;25.10;73.60
5556;DHT22;2801;50.972;7.856;2023-05-21T14:07:26;25.20;74.40
5556;DHT22;2801;50.972;7.856;2023-05-21T14:09:53;25.10;74.30
5556;DHT22;2801;50.972;7.856;2023-05-21T14:12:20;25.00;72.50
5556;DHT22;2801;50.972;7.856;2023-05-21T14:14:47;24.90;71.40
5556;DHT22;2801;50.972;7.856;2023-05-21T14:17:15;24.80;74.20
5556;DHT22;2801;50.972;7.856;2023-05-21T14:19:42;24.80;75.40
5556;DHT22;2801;50.972;7.856;2023-05-21T14:22:09;24.70;74.20
5556;DHT22;2801;50.972;7.856;2023-05-21T14:24:36;24.80;76.00
5556;DHT22;2801;50.972;7.856;2023-05-21T14:27:03;24.80;75.50
5556;DHT22;2801;50.972;7.856;2023-05-21T14:29:30;24.70;76.30
5556;DHT22;2801;50.972;7.856;2023-05-21T14:31:57;24.80;76.60
5556;DHT22;2801;50.972;7.856;2023-05-21T14:34:24;24.90;77.20
5556;DHT22;2801;50.972;7.856;2023-05-21T14:36:51;24.90;78.00
5556;DHT22;2801;50.972;7.856;2023-05-21T14:39:18;24.80;77.10
5556;DHT22;2801;50.972;7.856;2023-05-21T14:41:45;24.70;78.20
5556;DHT22;2801;50.972;7.856;2023-05-21T14:44:11;24.60;76.10
5556;DHT22;2801;50.972;7.856;2023-05-21T14:46:38;24.40;76.40
5556;DHT22;2801;50.972;7.856;2023-05-21T14:49:06;24.40;78.20
5556;DHT22;2801;50.972;7.856;2023-05-21T14:51:32;24.50;78.60
5556;DHT22;2801;50.972;7.856;2023-05-21T14:53:59;24.50;77.40
5556;DHT22;2801;50.972;7.856;2023-05-21T14:56:26;24.30;76.30
5556;DHT22;2801;50.972;7.856;2023-05-21T14:58:54;24.30;78.20
5556;DHT22;2801;50.972;7.856;2023-05-21T15:01:21;24.20;78.30
5556;DHT22;2801;50.972;7.856;2023-05-21T15:03:49;24.20;77.80
5556;DHT22;2801;50.972;7.856;2023-05-21T15:06:17;24.30;78.50
5556;DHT22;2801;50.972;7.856;2023-05-21T15:08:44;24.30;78.00
5556;DHT22;2801;50.972;7.856;2023-05-21T15:11:11;24.40;77.80
5556;DHT22;2801;50.972;7.856;2023-05-21T15:13:38;24.50;78.90
5556;DHT22;2801;50.972;7.856;2023-05-21T15:16:05;24.70;79.50
5556;DHT22;2801;50.972;7.856;2023-05-21T15:18:32;24.80;78.30
5556;DHT22;2801;50.972;7.856;2023-05-21T15:20:59;24.80;78.40
5556;DHT22;2801;50.972;7.856;2023-05-21T15:23:27;25.00;78.80
5556;DHT22;2801;50.972;7.856;2023-05-21T15:25:54;24.90;78.40
5556;DHT22;2801;50.972;7.856;2023-05-21T15:28:21;25.00;79.30
5556;DHT22;2801;50.972;7.856;2023-05-21T15:30:48;25.00;78.40
5556;DHT22;2801;50.972;7.856;2023-05-21T15:33:16;24.90;79.00
5556;DHT22;2801;50.972;7.856;2023-05-21T15:35:43;24.80;78.00
5556;DHT22;2801;50.972;7.856;2023-05-21T15:38:10;24.50;77.20
5556;DHT22;2801;50.972;7.856;2023-05-21T15:40:40;24.30;78.20
5556;DHT22;2801;50.972;7.856;2023-05-21T15:43:08;24.20;78.50
5556;DHT22;2801;50.972;7.856;2023-05-21T15:45:35;24.10;78.80
5556;DHT22;2801;50.972;7.856;2023-05-21T15:48:04;24.00;79.40
5556;DHT22;2801;50.972;7.856;2023-05-21T15:50:32;23.90;80.10
5556;DHT22;2801;50.972;7.856;2023-05-21T15:53:02;23.90;80.50
5556;DHT22;2801;50.972;7.856;2023-05-21T15:55:31;23.80;81.50
5556;DHT22;2801;50.972;7.856;2023-05-21T15:57:59;23.80;81.20
5556;DHT22;2801;50.972;7.856;2023-05-21T16:00:28;23.80;81.30
5556;DHT22;2801;50.972;7.856;2023-05-21T16:02:55;23.80;82.20
5556;DHT22;2801;50.972;7.856;2023-05-21T16:05:22;23.90;82.30
5556;DHT22;2801;50.972;7.856;2023-05-21T16:07:49;23.90;82.70
5556;DHT22;2801;50.972;7.856;2023-05-21T16:10:16;23.80;82.30
5556;DHT22;2801;50.972;7.856;2023-05-21T16:12:43;23.80;83.10
5556;DHT22;2801;50.972;7.856;2023-05-21T16:15:10;23.90;83.40
5556;DHT22;2801;50.972;7.856;2023-05-21T16:17:37;24.00;83.80
5556;DHT22;2801;50.972;7.856;2023-05-21T16:20:05;24.10;83.90
5556;DHT22;2801;50.972;7.856;2023-05-21T16:22:32;24.20;83.60
5556;DHT22;2801;50.972;7.856;2023-05-21T16:24:59;24.20;84.40
5556;DHT22;2801;50.972;7.856;2023-05-21T16:27:26;24.30;84.40
5556;DHT22;2801;50.972;7.856;2023-05-21T16:29:54;24.30;83.80
5556;DHT22;2801;50.972;7.856;2023-05-21T16:32:21;24.40;84.50
5556;DHT22;2801;50.972;7.856;2023-05-21T16:34:49;24.40;85.30